Time;durP1;ratioP1;P1;durP2;ratioP2;P2;SDS_P1;SDS_P2;PMS_P1;PMS_P2;Temp;Humidity;BMP_temperature;BMP_pressure;BME280_temperature;BME280_humidity;BME280_pressure;Samples;Min_cycle;Max_cycle;Signal;HPM_P1;HPM_P2
2021/09/13 00:01:59;;;;;;;1.00;0.80;;;18.00;99.90;;;;;;5056117;28;20465;-71
2021/09/13 00:04:26;;;;;;;0.90;0.70;;;17.80;99.90;;;;;;5056598;28;20480;-70
2021/09/13 00:06:53;;;;;;;1.60;0.70;;;17.80;99.90;;;;;;5056798;28;20456;-71
2021/09/13 00:09:21;;;;;;;0.80;0.60;;;17.80;99.90;;;;;;5056133;28;20512;-71
2021/09/13 00:11:48;;;;;;;1.40;0.70;;;17.90;99.90;;;;;;5054615;28;20445;-71
2021/09/13 00:14:15;;;;;;;1.00;0.70;;;17.90;99.90;;;;;;5053909;28;21071;-71
2021/09/13 00:16:42;;;;;;;1.10;0.70;;;18.00;99.90;;;;;;5055224;28;20512;-71
2021/09/13 00:19:09;;;;;;;2.00;0.70;;;18.00;99.90;;;;;;5054662;28;20429;-71
2021/09/13 00:21:36;;;;;;;1.80;0.70;;;18.00;99.90;;;;;;5054343;28;20841;-70
2021/09/13 00:24:03;;;;;;;1.10;0.70;;;18.00;99.90;;;;;;5052481;28;20532;-70
2021/09/13 00:26:32;;;;;;;1.00;0.70;;;18.10;99.90;;;;;;5054481;28;20464;-71
2021/09/13 00:28:59;;;;;;;0.98;0.70;;;18.10;99.90;;;;;;5054529;28;20943;-71
2021/09/13 00:31:26;;;;;;;1.00;0.80;;;18.10;99.90;;;;;;5055642;28;20518;-70
2021/09/13 00:33:53;;;;;;;0.90;0.60;;;18.10;99.90;;;;;;5055557;28;20460;-71
2021/09/13 00:36:20;;;;;;;1.00;0.70;;;18.00;99.90;;;;;;5055518;28;20868;-70
2021/09/13 00:38:46;;;;;;;1.00;0.70;;;17.90;99.90;;;;;;5055370;28;20472;-70
2021/09/13 00:41:13;;;;;;;1.10;0.70;;;17.90;99.90;;;;;;5055319;28;20827;-70
2021/09/13 00:43:43;;;;;;;1.77;0.80;;;17.90;99.90;;;;;;5054258;28;20437;-71
2021/09/13 00:46:10;;;;;;;1.55;0.80;;;17.90;99.90;;;;;;5053775;28;20560;-70
2021/09/13 00:48:36;;;;;;;0.95;0.80;;;17.80;99.90;;;;;;5053996;28;20524;-70
2021/09/13 00:51:04;;;;;;;1.00;0.80;;;17.70;99.90;;;;;;5053258;28;20508;-71
2021/09/13 00:53:31;;;;;;;1.63;0.70;;;17.60;99.90;;;;;;5053939;28;20850;-72
2021/09/13 00:55:59;;;;;;;1.10;0.70;;;17.70;99.90;;;;;;5053577;28;20425;-72
2021/09/13 00:58:28;;;;;;;0.80;0.60;;;17.70;99.90;;;;;;5053757;28;20491;-71
2021/09/13 01:00:58;;;;;;;1.00;0.70;;;17.80;99.90;;;;;;5054564;28;20840;-71
2021/09/13 01:03:25;;;;;;;1.10;0.80;;;17.80;99.90;;;;;;5053797;28;20825;-71
2021/09/13 01:05:52;;;;;;;1.10;0.80;;;17.90;99.90;;;;;;5052115;28;20504;-72
2021/09/13 01:08:19;;;;;;;1.00;0.70;;;17.80;99.90;;;;;;5052157;28;20545;-72
2021/09/13 01:10:48;;;;;;;1.30;0.90;;;17.60;99.90;;;;;;5052705;28;20781;-72
2021/09/13 01:13:15;;;;;;;1.00;0.70;;;17.50;99.90;;;;;;5052019;28;20872;-71
2021/09/13 01:15:42;;;;;;;1.50;0.70;;;17.50;99.90;;;;;;5052589;28;20421;-71
2021/09/13 01:18:11;;;;;;;0.90;0.60;;;17.40;99.90;;;;;;5053299;28;20519;-71
2021/09/13 01:20:38;;;;;;;1.00;0.60;;;17.30;99.90;;;;;;5056326;28;20470;-72
2021/09/13 01:23:09;;;;;;;0.80;0.60;;;17.30;99.90;;;;;;5055796;28;20783;-71
2021/09/13 01:25:38;;;;;;;1.40;0.70;;;17.30;99.90;;;;;;5053162;28;20853;-71
2021/09/13 01:28:05;;;;;;;0.80;0.70;;;17.40;99.90;;;;;;5055144;28;20469;-71
2021/09/13 01:30:33;;;;;;;1.70;0.70;;;17.40;99.90;;;;;;5055580;28;20476;-72
2021/09/13 01:33:00;;;;;;;1.60;0.80;;;17.50;99.90;;;;;;5054011;28;20453;-72
2021/09/13 01:35:27;;;;;;;1.20;0.80;;;17.50;99.90;;;;;;5055375;28;20463;-71
2021/09/13 01:37:54;;;;;;;0.90;0.67;;;17.40;99.90;;;;;;5054573;28;20787;-71
2021/09/13 01:40:21;;;;;;;1.33;1.23;;;17.40;99.90;;;;;;5053923;28;20508;-71
2021/09/13 01:42:49;;;;;;;1.00;0.60;;;17.40;99.90;;;;;;5053000;28;20469;-72
2021/09/13 01:45:16;;;;;;;1.05;0.70;;;17.50;99.90;;;;;;5053625;28;20539;-71
2021/09/13 01:47:43;;;;;;;0.90;0.70;;;17.60;99.90;;;;;;5052755;28;20417;-71
2021/09/13 01:50:11;;;;;;;0.88;0.70;;;17.60;99.90;;;;;;5056585;28;20916;-71
2021/09/13 01:52:38;;;;;;;0.82;0.60;;;17.70;99.90;;;;;;5058570;28;20417;-71
2021/09/13 01:55:05;;;;;;;1.00;0.70;;;17.70;99.90;;;;;;5059131;28;20485;-72
2021/09/13 01:57:32;;;;;;;0.80;0.70;;;17.70;99.90;;;;;;5059224;28;20875;-71
2021/09/13 02:00:01;;;;;;;1.20;0.70;;;17.70;99.90;;;;;;5058290;28;20491;-71
2021/09/13 02:02:28;;;;;;;2.00;0.70;;;17.60;99.90;;;;;;5056968;28;20452;-72
2021/09/13 02:04:55;;;;;;;1.80;0.70;;;17.50;99.90;;;;;;5056702;28;20524;-71
2021/09/13 02:07:22;;;;;;;0.93;0.80;;;17.40;99.90;;;;;;5056982;28;20478;-71
2021/09/13 02:09:52;;;;;;;1.00;0.70;;;17.30;99.90;;;;;;5057480;28;20424;-71
2021/09/13 02:12:19;;;;;;;0.90;0.70;;;17.20;99.90;;;;;;5056982;28;20421;-72
2021/09/13 02:14:46;;;;;;;1.00;0.70;;;17.20;99.90;;;;;;5056899;28;20433;-72
2021/09/13 02:17:15;;;;;;;1.10;0.70;;;17.30;99.90;;;;;;5058374;28;20513;-71
2021/09/13 02:19:42;;;;;;;0.80;0.65;;;17.30;99.90;;;;;;5058506;28;20536;-72
2021/09/13 02:22:09;;;;;;;1.30;0.80;;;17.30;99.90;;;;;;5058656;28;20453;-71
2021/09/13 02:24:36;;;;;;;0.90;0.80;;;17.40;99.90;;;;;;5057849;28;20872;-71
2021/09/13 02:27:03;;;;;;;0.85;0.60;;;17.50;99.90;;;;;;5058599;28;20568;-73
2021/09/13 02:29:30;;;;;;;1.20;0.80;;;17.50;99.90;;;;;;5058969;28;20715;-72
2021/09/13 02:31:57;;;;;;;1.80;0.70;;;17.40;99.90;;;;;;5058369;28;20421;-71
2021/09/13 02:34:25;;;;;;;2.90;0.70;;;17.30;99.90;;;;;;5057836;28;20787;-72
2021/09/13 02:36:52;;;;;;;0.82;0.70;;;17.30;99.90;;;;;;5058685;28;20523;-71
2021/09/13 02:39:19;;;;;;;0.90;0.70;;;17.40;99.90;;;;;;5058981;28;20736;-71
2021/09/13 02:41:46;;;;;;;1.80;0.80;;;17.40;99.90;;;;;;5057657;28;20790;-71
2021/09/13 02:44:13;;;;;;;1.00;0.70;;;17.50;99.90;;;;;;5056856;28;20524;-71
2021/09/13 02:46:40;;;;;;;3.10;0.70;;;17.50;99.90;;;;;;5057070;28;20426;-72
2021/09/13 02:49:07;;;;;;;0.90;0.80;;;17.50;99.90;;;;;;5056898;28;20524;-71
2021/09/13 02:51:35;;;;;;;2.25;0.80;;;17.50;99.90;;;;;;5056606;28;20845;-72
2021/09/13 02:54:02;;;;;;;1.00;0.70;;;17.50;99.90;;;;;;5054145;28;20882;-71
2021/09/13 02:56:29;;;;;;;1.35;0.80;;;17.30;99.90;;;;;;5053807;28;20418;-71
2021/09/13 02:58:56;;;;;;;1.80;0.70;;;17.20;99.90;;;;;;5054116;28;20465;-70
2021/09/13 03:01:23;;;;;;;1.00;0.70;;;17.10;99.90;;;;;;5053650;28;20789;-71
2021/09/13 03:03:50;;;;;;;1.90;0.80;;;16.90;99.90;;;;;;5054925;28;20470;-70
2021/09/13 03:06:17;;;;;;;1.42;0.80;;;16.90;99.90;;;;;;5055695;28;20441;-72
2021/09/13 03:08:45;;;;;;;1.00;0.70;;;16.80;99.90;;;;;;5055676;28;20515;-71
2021/09/13 03:11:12;;;;;;;1.50;0.70;;;16.70;99.90;;;;;;5055516;28;20445;-72
2021/09/13 03:13:39;;;;;;;1.10;0.70;;;16.60;99.90;;;;;;5056916;28;20468;-71
2021/09/13 03:16:06;;;;;;;1.10;0.80;;;16.60;99.90;;;;;;5056478;28;20449;-72
2021/09/13 03:18:33;;;;;;;0.90;0.75;;;16.50;99.90;;;;;;5057203;28;20461;-71
2021/09/13 03:21:00;;;;;;;1.10;0.80;;;16.50;99.90;;;;;;5055965;28;20469;-72
2021/09/13 03:23:27;;;;;;;0.90;0.70;;;16.50;99.90;;;;;;5055206;28;20844;-70
2021/09/13 03:25:55;;;;;;;2.08;0.80;;;16.50;99.90;;;;;;5054369;28;20935;-71
2021/09/13 03:28:22;;;;;;;1.23;0.80;;;16.70;99.90;;;;;;5056102;28;20721;-71
2021/09/13 03:30:51;;;;;;;1.30;0.80;;;16.80;99.90;;;;;;5056787;28;20469;-71
2021/09/13 03:33:18;;;;;;;1.10;0.80;;;16.90;99.90;;;;;;5057470;28;20732;-70
2021/09/13 03:35:44;;;;;;;1.00;0.70;;;16.90;99.90;;;;;;5057728;28;20497;-71
2021/09/13 03:38:11;;;;;;;1.20;0.90;;;17.00;99.90;;;;;;5057261;28;20768;-70
2021/09/13 03:40:38;;;;;;;1.10;0.80;;;17.00;99.90;;;;;;5056518;28;20449;-71
2021/09/13 03:43:07;;;;;;;2.20;0.80;;;16.90;99.90;;;;;;5056243;28;20433;-72
2021/09/13 03:45:34;;;;;;;1.30;0.80;;;16.90;99.90;;;;;;5057107;28;20437;-71
2021/09/13 03:48:01;;;;;;;2.20;0.90;;;16.90;99.90;;;;;;5055725;28;20483;-70
2021/09/13 03:50:27;;;;;;;1.15;0.90;;;16.90;99.90;;;;;;5055255;28;20787;-70
2021/09/13 03:52:55;;;;;;;2.17;0.82;;;16.90;99.90;;;;;;5055557;28;20833;-70
2021/09/13 03:55:21;;;;;;;4.20;1.00;;;17.00;99.90;;;;;;5054728;28;20461;-71
2021/09/13 03:57:49;;;;;;;2.60;1.00;;;16.90;99.90;;;;;;5052928;28;20967;-70
2021/09/13 04:00:17;;;;;;;2.50;0.90;;;16.80;99.90;;;;;;5052825;28;20425;-70
2021/09/13 04:02:47;;;;;;;1.30;0.80;;;16.70;99.90;;;;;;5051812;28;20421;-71
2021/09/13 04:05:19;;;;;;;3.13;0.90;;;16.60;99.90;;;;;;5052908;28;20435;-70
2021/09/13 04:08:04;;;;;;;1.55;0.90;;;16.60;99.90;;;;;;5052908;28;20425;-71
2021/09/13 04:10:35;;;;;;;1.42;1.00;;;16.60;99.90;;;;;;5054264;28;20487;-70
2021/09/13 04:13:02;;;;;;;1.80;0.90;;;16.50;99.90;;;;;;5053761;28;20433;-70
2021/09/13 04:15:30;;;;;;;3.50;0.90;;;16.50;99.90;;;;;;5054474;28;20840;-71
2021/09/13 04:17:57;;;;;;;1.70;1.00;;;16.50;99.90;;;;;;5055239;28;20506;-71
2021/09/13 04:20:24;;;;;;;1.90;0.90;;;16.60;99.90;;;;;;5054804;28;20504;-71
2021/09/13 04:22:51;;;;;;;2.10;0.90;;;16.70;99.90;;;;;;5055353;28;20491;-70
2021/09/13 04:25:18;;;;;;;1.27;0.90;;;16.60;99.90;;;;;;5053863;28;20864;-71
2021/09/13 04:27:45;;;;;;;1.80;0.80;;;16.70;99.90;;;;;;5056016;28;20456;-71
2021/09/13 04:30:12;;;;;;;1.00;0.80;;;16.70;99.90;;;;;;5054888;28;20468;-70
2021/09/13 04:32:41;;;;;;;0.98;0.75;;;16.70;99.90;;;;;;5054655;28;20516;-71
2021/09/13 04:35:08;;;;;;;1.10;0.90;;;16.70;99.90;;;;;;5054453;28;20776;-70
2021/09/13 04:37:35;;;;;;;1.30;0.90;;;16.70;99.90;;;;;;5054556;28;20860;-70
2021/09/13 04:40:03;;;;;;;1.00;0.80;;;16.70;99.90;;;;;;5054190;28;20431;-70
2021/09/13 04:42:30;;;;;;;1.70;0.90;;;16.70;99.90;;;;;;5054090;28;20764;-71
2021/09/13 04:44:57;;;;;;;2.30;0.80;;;16.70;99.90;;;;;;5055251;28;20473;-70
2021/09/13 04:47:24;;;;;;;2.20;0.80;;;16.70;99.90;;;;;;5055525;28;20453;-70
2021/09/13 04:49:52;;;;;;;1.08;0.80;;;16.80;99.90;;;;;;5055343;28;20433;-70
2021/09/13 04:52:19;;;;;;;1.10;0.80;;;16.80;99.90;;;;;;5055395;28;20428;-70
2021/09/13 04:54:46;;;;;;;2.65;0.98;;;16.80;99.90;;;;;;5054287;28;20453;-71
2021/09/13 04:57:13;;;;;;;2.30;1.00;;;16.60;99.90;;;;;;5052685;28;20475;-70
2021/09/13 04:59:40;;;;;;;2.08;0.80;;;16.40;99.90;;;;;;5053249;28;20452;-70
2021/09/13 05:02:07;;;;;;;1.92;1.00;;;16.30;99.90;;;;;;5053148;28;20428;-70
2021/09/13 05:04:34;;;;;;;1.20;0.90;;;16.30;99.90;;;;;;5051933;28;20520;-70
2021/09/13 05:07:03;;;;;;;1.65;1.00;;;16.30;99.90;;;;;;5054325;28;20471;-70
2021/09/13 05:09:30;;;;;;;1.30;0.95;;;16.40;99.90;;;;;;5054529;28;20437;-71
2021/09/13 05:11:57;;;;;;;1.37;1.00;;;16.40;99.90;;;;;;5053873;28;20429;-71
2021/09/13 05:14:23;;;;;;;3.90;1.10;;;16.50;99.90;;;;;;5053949;28;20836;-71
2021/09/13 05:16:51;;;;;;;1.70;1.00;;;16.60;99.90;;;;;;5053484;28;20460;-71
2021/09/13 05:19:18;;;;;;;1.60;0.90;;;16.70;99.90;;;;;;5053185;28;20425;-71
2021/09/13 05:21:45;;;;;;;1.95;1.00;;;16.80;99.90;;;;;;5063537;28;20430;-71
2021/09/13 05:24:13;;;;;;;1.60;1.10;;;16.90;99.90;;;;;;5071187;28;20423;-71
2021/09/13 05:26:42;;;;;;;1.30;0.90;;;16.90;99.90;;;;;;5065908;28;20431;-73
2021/09/13 05:29:09;;;;;;;1.30;0.80;;;16.90;99.90;;;;;;5062169;28;20499;-71
2021/09/13 05:31:36;;;;;;;1.08;0.80;;;17.20;99.90;;;;;;5049794;28;20416;-70
2021/09/13 05:34:03;;;;;;;1.00;0.80;;;17.30;99.90;;;;;;5062192;28;20431;-71
2021/09/13 05:36:30;;;;;;;1.90;0.77;;;17.40;99.90;;;;;;5067363;28;20416;-71
2021/09/13 05:38:57;;;;;;;1.20;0.70;;;17.50;99.90;;;;;;5063961;28;20520;-69
2021/09/13 05:41:25;;;;;;;1.10;0.70;;;17.70;99.90;;;;;;5070998;28;20507;-70
2021/09/13 05:43:52;;;;;;;2.15;0.80;;;17.80;99.90;;;;;;5070366;28;20517;-70
2021/09/13 05:46:19;;;;;;;2.60;0.90;;;17.90;99.90;;;;;;5055199;28;20532;-70
2021/09/13 05:48:46;;;;;;;1.70;0.80;;;18.00;99.90;;;;;;5047188;28;20936;-70
2021/09/13 05:51:13;;;;;;;1.27;0.90;;;18.10;99.90;;;;;;5049434;28;20783;-71
2021/09/13 05:53:40;;;;;;;3.17;0.90;;;18.20;99.90;;;;;;5050029;28;20429;-72
2021/09/13 05:56:07;;;;;;;2.60;0.90;;;18.20;99.90;;;;;;5050024;28;20515;-70
2021/09/13 05:58:35;;;;;;;1.33;0.85;;;18.40;99.90;;;;;;5070795;28;20514;-70
2021/09/13 06:01:04;;;;;;;1.00;0.90;;;18.40;99.90;;;;;;5072840;28;20465;-70
2021/09/13 06:03:31;;;;;;;1.20;0.90;;;18.50;99.90;;;;;;5072085;28;20435;-70
2021/09/13 06:05:58;;;;;;;2.40;1.00;;;18.40;99.90;;;;;;5070030;28;20481;-70
2021/09/13 06:08:25;;;;;;;1.10;0.80;;;18.40;99.90;;;;;;5069767;28;20515;-71
2021/09/13 06:10:52;;;;;;;1.08;0.80;;;18.30;99.90;;;;;;5068298;28;20426;-72
2021/09/13 06:13:19;;;;;;;1.20;0.90;;;18.40;99.90;;;;;;5068378;28;20618;-70
2021/09/13 06:15:47;;;;;;;2.30;0.90;;;18.40;99.90;;;;;;5067769;28;20494;-70
2021/09/13 06:18:14;;;;;;;2.70;0.90;;;18.40;99.90;;;;;;5068611;28;20755;-70
2021/09/13 06:20:41;;;;;;;2.53;1.00;;;18.20;99.90;;;;;;5067548;28;20423;-71
2021/09/13 06:23:08;;;;;;;1.70;1.00;;;18.10;99.90;;;;;;5068074;28;20450;-71
2021/09/13 06:25:36;;;;;;;2.00;1.00;;;18.10;99.90;;;;;;5066796;28;20699;-71
2021/09/13 06:28:03;;;;;;;1.00;0.90;;;18.10;99.90;;;;;;5074583;28;20432;-71
2021/09/13 06:30:30;;;;;;;2.67;0.80;;;18.00;99.90;;;;;;5072716;28;20558;-71
2021/09/13 06:32:58;;;;;;;1.37;0.90;;;18.00;99.90;;;;;;5057090;28;20509;-71
2021/09/13 06:35:27;;;;;;;1.20;0.90;;;18.10;99.90;;;;;;5053107;28;20417;-72
2021/09/13 06:37:54;;;;;;;2.05;0.80;;;18.10;99.90;;;;;;5065355;28;20808;-71
2021/09/13 06:40:21;;;;;;;1.50;1.00;;;18.20;99.90;;;;;;5069846;28;20528;-71
2021/09/13 06:42:48;;;;;;;1.30;0.90;;;18.10;99.90;;;;;;5072189;28;21027;-72
2021/09/13 06:45:20;;;;;;;1.40;0.90;;;18.20;99.90;;;;;;5071669;28;20423;-72
2021/09/13 06:47:47;;;;;;;2.30;1.00;;;18.20;99.90;;;;;;5061379;28;20816;-72
2021/09/13 06:50:19;;;;;;;1.67;0.90;;;18.30;99.90;;;;;;5069240;28;20483;-72
2021/09/13 06:52:47;;;;;;;1.33;0.90;;;18.30;99.90;;;;;;5066743;28;21014;-72
2021/09/13 06:55:14;;;;;;;1.20;0.80;;;18.40;99.90;;;;;;5053207;28;20919;-72
2021/09/13 06:57:41;;;;;;;2.70;1.00;;;18.60;99.90;;;;;;5056092;28;20492;-72
2021/09/13 07:00:12;;;;;;;3.30;1.20;;;18.70;99.90;;;;;;5073960;28;20447;-72
2021/09/13 07:02:40;;;;;;;2.50;0.90;;;18.70;99.90;;;;;;5053322;28;20926;-72
2021/09/13 07:05:08;;;;;;;1.67;0.90;;;18.70;99.90;;;;;;5066519;28;20447;-72
2021/09/13 07:07:38;;;;;;;1.73;1.10;;;18.60;99.90;;;;;;5072182;28;20730;-72
2021/09/13 07:10:07;;;;;;;1.20;0.90;;;18.70;99.90;;;;;;5072433;28;20754;-73
2021/09/13 07:12:35;;;;;;;1.95;1.10;;;18.70;99.90;;;;;;5072498;28;20489;-73
2021/09/13 07:15:03;;;;;;;2.53;1.20;;;18.60;99.90;;;;;;5068899;28;20424;-73
2021/09/13 07:17:30;;;;;;;1.65;1.10;;;18.60;99.90;;;;;;5070565;28;20424;-73
2021/09/13 07:19:57;;;;;;;1.90;0.90;;;18.60;99.90;;;;;;5069681;28;20435;-73
2021/09/13 07:22:24;;;;;;;1.70;1.10;;;18.70;99.90;;;;;;5071339;28;20806;-71
2021/09/13 07:24:53;;;;;;;2.45;1.10;;;18.80;99.90;;;;;;5066502;28;20737;-71
2021/09/13 07:27:20;;;;;;;3.67;1.00;;;18.90;99.90;;;;;;5067824;28;20457;-71
2021/09/13 07:29:47;;;;;;;1.90;1.00;;;19.10;99.90;;;;;;5073725;28;20519;-71
2021/09/13 07:32:14;;;;;;;3.50;0.95;;;19.30;99.90;;;;;;5075346;28;20855;-71
2021/09/13 07:34:41;;;;;;;1.40;1.00;;;19.50;99.90;;;;;;5071853;28;21095;-70
2021/09/13 07:37:08;;;;;;;2.90;0.90;;;19.60;99.90;;;;;;5070098;28;20478;-70
2021/09/13 07:39:35;;;;;;;1.10;0.80;;;19.70;99.90;;;;;;5069045;28;20532;-70
2021/09/13 07:42:06;;;;;;;1.50;1.00;;;19.70;99.90;;;;;;5071092;28;20451;-72
2021/09/13 07:44:33;;;;;;;2.47;1.30;;;19.80;99.90;;;;;;5065293;28;20861;-71
2021/09/13 07:47:00;;;;;;;2.58;1.10;;;19.70;99.90;;;;;;5065881;28;20427;-71
2021/09/13 07:49:27;;;;;;;2.50;1.10;;;19.60;99.90;;;;;;5066810;28;20521;-71
2021/09/13 07:51:54;;;;;;;2.10;1.10;;;19.50;99.90;;;;;;5072169;28;20526;-71
2021/09/13 07:54:21;;;;;;;2.90;1.23;;;19.60;99.90;;;;;;5065050;28;20445;-72
2021/09/13 07:56:48;;;;;;;2.70;1.50;;;19.70;99.90;;;;;;5070009;28;20510;-70
2021/09/13 07:59:16;;;;;;;1.65;1.40;;;19.80;99.90;;;;;;5071805;28;20469;-72
2021/09/13 08:01:43;;;;;;;1.20;1.00;;;19.80;99.90;;;;;;5067477;28;20530;-72
2021/09/13 08:04:13;;;;;;;1.70;1.17;;;19.80;99.90;;;;;;5070768;28;20431;-71
2021/09/13 08:06:41;;;;;;;1.40;1.00;;;19.80;99.90;;;;;;5072749;28;20431;-71
2021/09/13 08:09:08;;;;;;;1.70;1.13;;;19.90;99.90;;;;;;5061600;28;20503;-71
2021/09/13 08:11:35;;;;;;;1.30;1.00;;;20.00;99.90;;;;;;5069468;28;20423;-70
2021/09/13 08:14:02;;;;;;;1.92;1.10;;;20.20;99.90;;;;;;5070076;28;20443;-70
2021/09/13 08:16:31;;;;;;;1.40;0.98;;;20.30;99.90;;;;;;5070255;28;20507;-70
2021/09/13 08:18:59;;;;;;;2.92;1.20;;;20.30;99.90;;;;;;5062008;28;21115;-70
2021/09/13 08:21:27;;;;;;;2.25;1.10;;;20.40;99.90;;;;;;5070288;28;20428;-70
2021/09/13 08:23:54;;;;;;;1.40;1.00;;;20.40;99.90;;;;;;5073096;28;20712;-71
2021/09/13 08:26:22;;;;;;;1.35;0.90;;;20.50;99.90;;;;;;5071960;28;20510;-70
2021/09/13 08:28:49;;;;;;;2.00;1.00;;;20.40;99.90;;;;;;5072891;28;20435;-70
2021/09/13 08:31:16;;;;;;;1.83;0.90;;;20.40;99.90;;;;;;5071383;28;20423;-70
2021/09/13 08:33:44;;;;;;;1.80;1.10;;;20.40;99.90;;;;;;5071072;28;20436;-71
2021/09/13 08:36:11;;;;;;;1.30;0.80;;;20.40;99.90;;;;;;5073174;28;20511;-71
2021/09/13 08:38:38;;;;;;;1.50;0.90;;;20.50;99.90;;;;;;5072550;28;20492;-73
2021/09/13 08:43:54;;;;;;;1.88;0.93;;;20.60;99.90;;;;;;5068879;28;20435;-72
2021/09/13 08:46:25;;;;;;;1.20;0.93;;;20.50;99.90;;;;;;5069580;28;20431;-71
2021/09/13 08:48:58;;;;;;;2.80;0.90;;;20.50;99.90;;;;;;5059103;28;20444;-72
2021/09/13 08:51:31;;;;;;;1.30;0.90;;;20.70;99.90;;;;;;5052158;28;20429;-72
2021/09/13 08:54:01;;;;;;;1.20;0.80;;;20.80;99.90;;;;;;5058400;28;20435;-71
2021/09/13 08:56:34;;;;;;;1.38;0.70;;;20.90;99.90;;;;;;5070477;28;20420;-71
2021/09/13 08:59:05;;;;;;;1.30;0.80;;;21.20;99.90;;;;;;5071641;28;20441;-71
2021/09/13 09:01:33;;;;;;;1.70;0.80;;;21.40;99.90;;;;;;5073024;28;20520;-72
2021/09/13 09:04:06;;;;;;;1.42;0.90;;;21.60;99.90;;;;;;5074222;28;20663;-71
2021/09/13 09:06:34;;;;;;;1.40;1.10;;;21.70;99.90;;;;;;5073312;28;20726;-71
2021/09/13 09:09:04;;;;;;;1.10;0.80;;;21.70;99.90;;;;;;5072136;28;20423;-72
2021/09/13 09:11:55;;;;;;;1.20;0.80;;;21.70;99.90;;;;;;5073581;28;20427;-71
2021/09/13 09:14:36;;;;;;;1.10;1.00;;;21.70;99.90;;;;;;5073216;28;20572;-72
2021/09/13 09:17:09;;;;;;;2.08;1.10;;;21.80;99.90;;;;;;5073404;28;20585;-71
2021/09/13 09:19:38;;;;;;;1.20;0.80;;;21.80;99.90;;;;;;5072957;28;20438;-70
2021/09/13 09:22:20;;;;;;;1.50;0.90;;;21.60;99.90;;;;;;5075345;28;20827;-71
2021/09/13 09:24:47;;;;;;;1.30;0.80;;;21.60;99.90;;;;;;5071666;28;20720;-71
2021/09/13 09:27:15;;;;;;;1.10;0.90;;;21.70;99.90;;;;;;5070679;28;20439;-70
2021/09/13 09:29:42;;;;;;;1.90;0.90;;;21.80;99.90;;;;;;5072142;28;20463;-70
2021/09/13 09:32:09;;;;;;;2.00;1.10;;;21.90;99.90;;;;;;5071007;28;20451;-73
2021/09/13 09:34:38;;;;;;;1.55;0.90;;;21.90;99.90;;;;;;5070839;28;20431;-72
2021/09/13 09:37:10;;;;;;;2.10;1.00;;;22.00;99.90;;;;;;5071160;28;20851;-72
2021/09/13 09:39:38;;;;;;;1.98;0.90;;;22.30;99.90;;;;;;5070425;28;20443;-72
2021/09/13 09:42:11;;;;;;;1.10;0.80;;;22.50;99.90;;;;;;5061682;28;20842;-72
2021/09/13 09:44:41;;;;;;;1.20;0.80;;;22.70;99.90;;;;;;5058642;28;20537;-72
2021/09/13 09:47:11;;;;;;;1.02;0.80;;;22.90;99.90;;;;;;5061232;28;20442;-73
2021/09/13 09:49:51;;;;;;;2.00;0.80;;;23.10;99.90;;;;;;5068866;28;20444;-73
2021/09/13 09:52:36;;;;;;;1.80;0.80;;;23.20;99.90;;;;;;5071867;28;20747;-73
2021/09/13 09:55:15;;;;;;;1.10;0.80;;;23.30;99.90;;;;;;5071849;28;20502;-73
2021/09/13 09:57:44;;;;;;;1.30;0.90;;;23.40;99.90;;;;;;5067700;28;20504;-73
2021/09/13 10:00:26;;;;;;;1.10;0.80;;;23.50;99.90;;;;;;5074284;28;20431;-73
2021/09/13 10:02:54;;;;;;;1.20;0.80;;;23.60;99.90;;;;;;5069683;28;20443;-71
2021/09/13 10:05:24;;;;;;;0.90;0.70;;;23.70;99.90;;;;;;5070032;28;20492;-71
2021/09/13 10:07:52;;;;;;;1.13;0.70;;;24.10;99.90;;;;;;5064430;28;20441;-73
2021/09/13 10:10:19;;;;;;;1.00;0.80;;;24.50;99.90;;;;;;5067123;28;20438;-70
2021/09/13 10:12:47;;;;;;;1.10;0.80;;;24.60;99.90;;;;;;5075200;28;20431;-71
2021/09/13 10:15:15;;;;;;;0.90;0.70;;;24.80;99.90;;;;;;5073410;28;20514;-72
2021/09/13 10:17:42;;;;;;;2.00;0.80;;;25.00;99.90;;;;;;5073296;28;20412;-73
2021/09/13 10:20:11;;;;;;;1.00;0.80;;;24.70;99.90;;;;;;5074141;28;20423;-72
2021/09/13 10:22:42;;;;;;;1.20;0.70;;;24.70;99.90;;;;;;5076518;28;20749;-72
2021/09/13 10:25:10;;;;;;;1.40;0.88;;;25.00;99.90;;;;;;5074834;28;20853;-73
2021/09/13 10:27:39;;;;;;;1.50;0.80;;;25.20;99.90;;;;;;5074861;28;20438;-74
2021/09/13 10:30:17;;;;;;;1.30;0.80;;;25.40;99.90;;;;;;5075333;28;20502;-73
2021/09/13 10:32:46;;;;;;;0.98;0.70;;;25.60;99.90;;;;;;5074478;28;20427;-74
2021/09/13 10:35:15;;;;;;;1.25;0.80;;;25.80;99.90;;;;;;5075046;28;20486;-72
2021/09/13 10:37:46;;;;;;;1.50;0.88;;;26.10;99.90;;;;;;5072199;28;20419;-72
2021/09/13 10:40:29;;;;;;;1.45;0.70;;;26.30;99.90;;;;;;5068811;28;20423;-73
2021/09/13 10:42:57;;;;;;;1.50;0.85;;;26.60;99.90;;;;;;5071094;28;20865;-72
2021/09/13 10:45:30;;;;;;;1.02;0.70;;;26.80;99.90;;;;;;5071341;28;20884;-72
2021/09/13 10:48:13;;;;;;;1.00;0.70;;;26.90;99.90;;;;;;5073401;28;20439;-71
2021/09/13 10:50:44;;;;;;;0.90;0.70;;;27.20;99.90;;;;;;5076581;28;20415;-72
2021/09/13 10:53:33;;;;;;;1.15;0.80;;;27.40;99.90;;;;;;5072930;28;20427;-72
2021/09/13 10:56:04;;;;;;;1.00;0.70;;;27.70;99.90;;;;;;5073063;28;20423;-72
2021/09/13 10:58:53;;;;;;;0.90;0.70;;;27.60;99.90;;;;;;5072857;28;20493;-72
2021/09/13 11:01:27;;;;;;;1.45;0.70;;;27.70;99.90;;;;;;5073335;28;20442;-72
2021/09/13 11:04:03;;;;;;;1.00;0.70;;;27.60;99.90;;;;;;5076258;28;20873;-71
2021/09/13 11:06:45;;;;;;;0.95;0.80;;;27.40;99.90;;;;;;5074447;28;20434;-71
2021/09/13 11:09:24;;;;;;;1.20;0.80;;;27.30;99.90;;;;;;5076030;28;20478;-71
2021/09/13 11:11:57;;;;;;;0.97;0.80;;;27.00;99.90;;;;;;5074545;28;20434;-72
2021/09/13 11:14:25;;;;;;;1.50;0.80;;;26.80;99.90;;;;;;5073411;28;20423;-73
2021/09/13 11:16:55;;;;;;;1.30;0.80;;;26.80;99.90;;;;;;5069580;28;20650;-72
2021/09/13 11:19:25;;;;;;;1.00;0.90;;;27.00;99.90;;;;;;5071522;28;20842;-71
2021/09/13 11:21:54;;;;;;;1.00;0.90;;;27.10;99.90;;;;;;5070781;28;20442;-70
2021/09/13 11:24:23;;;;;;;1.30;0.80;;;27.20;99.90;;;;;;5067279;28;20488;-71
2021/09/13 11:26:52;;;;;;;0.90;0.70;;;27.40;99.90;;;;;;5071724;28;20419;-71
2021/09/13 11:29:21;;;;;;;1.00;0.77;;;27.10;99.90;;;;;;5071520;28;20791;-70
2021/09/13 11:31:50;;;;;;;1.60;0.80;;;26.80;99.90;;;;;;5072148;28;20481;-70
2021/09/13 11:34:29;;;;;;;1.00;0.80;;;26.60;99.90;;;;;;5071442;28;20466;-71
2021/09/13 11:37:03;;;;;;;0.90;0.70;;;26.40;99.90;;;;;;5072527;28;20751;-71
2021/09/13 11:39:34;;;;;;;1.37;0.80;;;26.50;99.90;;;;;;5073089;28;20423;-71
2021/09/13 11:42:04;;;;;;;1.10;0.70;;;26.40;99.90;;;;;;5071498;28;20412;-70
2021/09/13 11:44:37;;;;;;;0.93;0.70;;;26.20;99.90;;;;;;5073256;28;20427;-71
2021/09/13 11:47:06;;;;;;;1.30;0.80;;;26.20;99.90;;;;;;5073972;28;20794;-72
2021/09/13 11:49:35;;;;;;;1.10;0.80;;;26.40;99.90;;;;;;5074157;28;20794;-72
2021/09/13 11:52:19;;;;;;;1.00;0.80;;;26.50;99.90;;;;;;5073655;28;20888;-71
2021/09/13 11:55:02;;;;;;;1.20;0.70;;;26.30;99.90;;;;;;5073046;28;20881;-71
2021/09/13 11:57:40;;;;;;;0.90;0.70;;;26.20;99.90;;;;;;5069452;28;20489;-71
2021/09/13 12:00:13;;;;;;;1.30;0.80;;;26.30;99.90;;;;;;5057900;28;20840;-70
2021/09/13 12:02:45;;;;;;;1.10;0.70;;;26.80;99.90;;;;;;5057027;28;20965;-71
2021/09/13 12:05:15;;;;;;;0.93;0.70;;;27.20;99.90;;;;;;5063165;28;20435;-71
2021/09/13 12:07:45;;;;;;;1.00;0.80;;;27.20;99.90;;;;;;5062553;28;21002;-71
2021/09/13 12:10:17;;;;;;;1.00;0.90;;;26.80;99.90;;;;;;5067884;28;20434;-71
2021/09/13 12:12:46;;;;;;;1.10;0.88;;;26.10;99.90;;;;;;5053645;28;20814;-71
2021/09/13 12:15:15;;;;;;;0.90;0.80;;;25.80;99.90;;;;;;5070932;28;20438;-71
2021/09/13 12:17:44;;;;;;;0.80;0.60;;;25.70;99.90;;;;;;5070103;28;20453;-71
2021/09/13 12:20:15;;;;;;;1.00;0.80;;;25.80;99.90;;;;;;5068772;28;20526;-71
2021/09/13 12:22:45;;;;;;;1.80;0.80;;;25.70;99.90;;;;;;5070515;28;20455;-71
2021/09/13 12:25:16;;;;;;;1.40;0.80;;;25.70;99.90;;;;;;5070458;28;20862;-71
2021/09/13 12:27:45;;;;;;;1.40;1.20;;;26.00;99.90;;;;;;5073061;28;20459;-71
2021/09/13 12:30:19;;;;;;;0.95;0.80;;;26.10;99.90;;;;;;5072433;28;20427;-71
2021/09/13 12:32:57;;;;;;;0.80;0.70;;;26.00;99.90;;;;;;5072819;28;20707;-71
2021/09/13 12:35:41;;;;;;;0.90;0.80;;;26.00;99.90;;;;;;5074569;28;20820;-72
2021/09/13 12:38:12;;;;;;;1.23;0.70;;;25.90;99.90;;;;;;5072317;28;20473;-71
2021/09/13 12:40:57;;;;;;;1.75;0.77;;;25.80;99.90;;;;;;5073115;28;20474;-72
2021/09/13 12:43:25;;;;;;;0.80;0.70;;;25.90;99.90;;;;;;5073665;28;20884;-71
2021/09/13 12:46:08;;;;;;;0.90;0.70;;;25.80;99.90;;;;;;5071902;28;20431;-71
2021/09/13 12:48:37;;;;;;;1.20;0.80;;;25.70;99.90;;;;;;5071942;28;20431;-71
2021/09/13 12:51:05;;;;;;;1.00;0.70;;;25.60;99.90;;;;;;5070646;28;20450;-71
2021/09/13 12:53:32;;;;;;;0.90;0.70;;;25.60;99.90;;;;;;5073170;28;20730;-71
2021/09/13 12:56:12;;;;;;;1.10;0.70;;;25.90;99.90;;;;;;5071608;28;20847;-71
2021/09/13 12:58:39;;;;;;;1.00;0.70;;;26.20;99.90;;;;;;5070060;28;20469;-72
2021/09/13 13:01:08;;;;;;;0.90;0.70;;;26.60;99.90;;;;;;5070870;28;20501;-71